Time;durP1;ratioP1;P1;durP2;ratioP2;P2;SDS_P1;SDS_P2;PMS_P1;PMS_P2;Temp;Humidity;BMP_temperature;BMP_pressure;BME280_temperature;BME280_humidity;BME280_pressure;Samples;Min_cycle;Max_cycle;Signal;HPM_P1;HPM_P2
2023/10/03 00:00:24;;;;;;;22.90;9.65;;;15.70;98.70;;;;;;5003513;28;20031;-68
2023/10/03 00:02:55;;;;;;;23.98;9.88;;;15.70;98.70;;;;;;5005437;28;20040;-70
2023/10/03 00:05:28;;;;;;;20.60;10.30;;;15.70;98.80;;;;;;5005864;28;20144;-68
2023/10/03 00:07:54;;;;;;;24.98;11.32;;;15.80;98.80;;;;;;4998895;28;20034;-68
2023/10/03 00:10:20;;;;;;;21.83;10.05;;;15.80;98.80;;;;;;5005948;28;20416;-68
2023/10/03 00:12:48;;;;;;;20.73;10.45;;;15.80;98.70;;;;;;5003288;28;20041;-68
2023/10/03 00:15:19;;;;;;;23.88;10.25;;;15.80;98.70;;;;;;5005807;28;20060;-69
2023/10/03 00:17:45;;;;;;;21.63;9.50;;;15.80;98.80;;;;;;5004396;28;20493;-68
2023/10/03 00:20:16;;;;;;;22.85;10.40;;;15.80;98.70;;;;;;5004118;28;20030;-68
2023/10/03 00:22:42;;;;;;;;;;;15.90;98.70;;;;;;4999414;28;20033;-68
2023/10/03 00:25:17;;;;;;;23.55;9.50;;;15.90;98.70;;;;;;5007972;28;19921;-68
2023/10/03 00:27:46;;;;;;;21.90;10.18;;;16.00;98.60;;;;;;5003161;28;20041;-69
2023/10/03 00:30:13;;;;;;;17.67;9.73;;;15.90;98.50;;;;;;5003934;28;20033;-68
2023/10/03 00:32:40;;;;;;;19.17;9.45;;;15.90;98.40;;;;;;5008362;28;20045;-69
2023/10/03 00:35:06;;;;;;;21.55;9.35;;;15.90;98.40;;;;;;5008898;28;20034;-68
2023/10/03 00:37:32;;;;;;;20.27;9.55;;;16.00;98.50;;;;;;5000764;28;20244;-68
2023/10/03 00:39:59;;;;;;;19.25;9.23;;;16.00;98.40;;;;;;5008862;28;20098;-69
2023/10/03 00:42:25;;;;;;;17.08;9.10;;;15.90;98.30;;;;;;5004271;28;20029;-68
2023/10/03 00:44:50;;;;;;;19.10;8.65;;;15.90;98.30;;;;;;4999164;28;20375;-68
2023/10/03 00:47:16;;;;;;;22.88;9.57;;;15.90;98.30;;;;;;4999274;28;20034;-68
2023/10/03 00:49:43;;;;;;;17.52;8.70;;;15.80;98.30;;;;;;5007247;28;20041;-71
2023/10/03 00:52:09;;;;;;;17.08;9.10;;;15.80;98.30;;;;;;5009524;28;20030;-68
2023/10/03 00:54:36;;;;;;;18.40;8.38;;;15.80;98.30;;;;;;5001646;28;20120;-68
2023/10/03 00:57:02;;;;;;;14.25;8.60;;;15.80;98.40;;;;;;5003153;28;20054;-68
2023/10/03 00:59:28;;;;;;;16.25;8.23;;;15.70;98.40;;;;;;5001125;28;20038;-69
2023/10/03 01:02:02;;;;;;;16.75;9.30;;;15.70;98.40;;;;;;5000096;28;20382;-68
2023/10/03 01:04:31;;;;;;;19.38;8.68;;;15.70;98.50;;;;;;5005225;28;20061;-68
2023/10/03 01:06:59;;;;;;;17.85;9.05;;;15.70;98.40;;;;;;5002993;28;20077;-68
2023/10/03 01:09:28;;;;;;;15.93;7.85;;;15.70;98.40;;;;;;4996203;28;20026;-69
2023/10/03 01:11:55;;;;;;;15.82;8.40;;;15.70;98.40;;;;;;5003697;28;20041;-69
2023/10/03 01:14:22;;;;;;;16.35;8.43;;;15.70;98.50;;;;;;5002833;28;20037;-69
2023/10/03 01:16:48;;;;;;;15.68;7.70;;;15.70;98.50;;;;;;5002117;28;20041;-68
2023/10/03 01:19:20;;;;;;;18.85;9.00;;;15.60;98.50;;;;;;5003868;28;20026;-68
2023/10/03 01:21:50;;;;;;;19.75;8.02;;;15.60;98.50;;;;;;5006543;28;20044;-68
2023/10/03 01:24:20;;;;;;;17.42;8.35;;;15.60;98.50;;;;;;5006934;28;20024;-68
2023/10/03 01:26:47;;;;;;;17.42;8.45;;;15.50;98.50;;;;;;5008129;28;20446;-69
2023/10/03 01:29:13;;;;;;;15.75;7.85;;;15.50;98.60;;;;;;5002321;28;20022;-68
2023/10/03 01:31:39;;;;;;;13.93;7.78;;;15.50;98.60;;;;;;5010263;28;20042;-69
2023/10/03 01:34:05;;;;;;;18.13;8.27;;;15.60;98.60;;;;;;5010515;28;20386;-69
2023/10/03 01:36:31;;;;;;;15.13;8.20;;;15.70;98.70;;;;;;5009643;28;20038;-71
2023/10/03 01:38:56;;;;;;;15.48;7.93;;;15.70;98.40;;;;;;5012113;28;20026;-70
2023/10/03 01:41:22;;;;;;;15.68;7.82;;;15.90;98.30;;;;;;5010929;28;20040;-68
2023/10/03 01:43:48;;;;;;;17.27;8.65;;;15.80;98.00;;;;;;5002836;28;20383;-70
2023/10/03 01:46:13;;;;;;;15.23;8.25;;;15.80;98.00;;;;;;5002906;28;20144;-70
2023/10/03 01:48:39;;;;;;;14.60;7.72;;;15.90;97.90;;;;;;5012362;28;20155;-68
2023/10/03 01:51:06;;;;;;;17.45;7.68;;;16.00;97.50;;;;;;5013423;28;20639;-68
2023/10/03 01:53:32;;;;;;;16.33;8.13;;;16.00;97.40;;;;;;5010229;28;20356;-71
2023/10/03 01:55:57;;;;;;;18.20;7.50;;;15.90;97.40;;;;;;5006899;28;20044;-68
2023/10/03 01:58:24;;;;;;;13.85;7.25;;;16.00;97.40;;;;;;4998143;28;20410;-68
2023/10/03 02:00:50;;;;;;;15.48;7.28;;;15.90;97.40;;;;;;5006620;28;20030;-68
2023/10/03 02:03:16;;;;;;;15.50;7.43;;;16.00;97.30;;;;;;5008100;28;20387;-68
2023/10/03 02:05:43;;;;;;;16.08;7.50;;;15.90;97.30;;;;;;5003558;28;20111;-68
2023/10/03 02:08:15;;;;;;;15.80;8.20;;;15.90;97.10;;;;;;5007303;28;20482;-69
2023/10/03 02:10:41;;;;;;;15.50;7.50;;;15.90;97.00;;;;;;4999415;28;20026;-68
2023/10/03 02:13:11;;;;;;;16.10;6.95;;;15.90;97.00;;;;;;5005826;28;20029;-69
2023/10/03 02:15:38;;;;;;;14.68;7.65;;;15.90;97.00;;;;;;5007692;28;20034;-71
2023/10/03 02:18:05;;;;;;;15.70;7.25;;;15.90;97.00;;;;;;5004649;28;20029;-69
2023/10/03 02:20:38;;;;;;;21.30;7.20;;;15.80;97.00;;;;;;5012042;28;20034;-69
2023/10/03 02:23:05;;;;;;;13.75;7.45;;;15.80;97.20;;;;;;5009167;28;20057;-69
2023/10/03 02:25:37;;;;;;;12.50;6.40;;;15.70;97.00;;;;;;5011028;28;20180;-68
2023/10/03 02:28:05;;;;;;;14.43;6.72;;;15.70;97.00;;;;;;5008442;28;20451;-68
2023/10/03 02:30:31;;;;;;;14.88;7.05;;;15.70;97.00;;;;;;5008947;28;20505;-68
2023/10/03 02:32:58;;;;;;;14.02;6.93;;;15.70;97.10;;;;;;5009560;28;20052;-68
2023/10/03 02:35:26;;;;;;;17.33;7.57;;;15.70;97.10;;;;;;5013250;28;20026;-68
2023/10/03 02:37:57;;;;;;;14.38;6.97;;;15.70;96.90;;;;;;5008801;28;20030;-68
2023/10/03 02:40:26;;;;;;;13.82;6.70;;;15.60;96.90;;;;;;5012471;28;20443;-68
2023/10/03 02:42:54;;;;;;;14.88;7.32;;;15.60;97.00;;;;;;5007089;28;20034;-68
2023/10/03 02:45:23;;;;;;;13.07;6.47;;;15.60;96.90;;;;;;5012355;28;20040;-68
2023/10/03 02:47:51;;;;;;;13.38;6.95;;;15.60;96.90;;;;;;5004130;28;20033;-68
2023/10/03 02:50:17;;;;;;;14.93;6.90;;;15.50;96.80;;;;;;5007568;28;20022;-68
2023/10/03 02:52:45;;;;;;;15.50;7.15;;;15.60;96.90;;;;;;5005439;28;20113;-68
2023/10/03 02:55:14;;;;;;;14.15;6.85;;;15.50;96.80;;;;;;5006664;28;20037;-69
2023/10/03 02:57:40;;;;;;;15.93;7.25;;;15.50;96.80;;;;;;5009042;28;20041;-69
2023/10/03 03:00:12;;;;;;;14.25;6.72;;;15.50;96.90;;;;;;5005788;28;20026;-68
2023/10/03 03:02:41;;;;;;;14.07;7.18;;;15.60;96.80;;;;;;5005739;28;20038;-68
2023/10/03 03:05:10;;;;;;;14.48;6.45;;;15.60;96.60;;;;;;5012125;28;20022;-69
2023/10/03 03:07:35;;;;;;;13.65;6.45;;;15.60;96.50;;;;;;5003581;28;20038;-70
2023/10/03 03:10:01;;;;;;;15.02;6.22;;;15.70;96.20;;;;;;5010821;28;20040;-69
2023/10/03 03:12:27;;;;;;;15.48;6.22;;;15.70;95.90;;;;;;5009180;28;20122;-69
2023/10/03 03:14:52;;;;;;;14.98;6.55;;;15.80;95.70;;;;;;5000176;28;20041;-68
2023/10/03 03:17:20;;;;;;;13.65;6.22;;;15.80;95.30;;;;;;5009553;28;20030;-68
2023/10/03 03:19:46;;;;;;;14.32;5.93;;;15.90;95.20;;;;;;5005932;28;20025;-69
2023/10/03 03:22:15;;;;;;;13.65;6.50;;;15.80;95.10;;;;;;5008437;28;20096;-68
2023/10/03 03:24:41;;;;;;;13.05;6.20;;;15.80;95.10;;;;;;5004418;28;20468;-67
2023/10/03 03:27:11;;;;;;;16.60;6.32;;;15.80;94.90;;;;;;5008751;28;20128;-68
2023/10/03 03:29:38;;;;;;;14.80;6.40;;;15.90;94.70;;;;;;5008268;28;20025;-69
2023/10/03 03:32:04;;;;;;;11.93;6.15;;;15.80;94.80;;;;;;5004226;28;20029;-68
2023/10/03 03:34:31;;;;;;;14.40;6.28;;;15.80;94.50;;;;;;5005233;28;20077;-68
2023/10/03 03:37:14;;;;;;;13.25;6.30;;;15.90;93.90;;;;;;5007513;28;20529;-68
2023/10/03 03:39:52;;;;;;;14.98;7.28;;;16.00;93.60;;;;;;4998483;28;20084;-68
2023/10/03 03:42:17;;;;;;;14.85;5.70;;;16.00;93.60;;;;;;5008386;28;20022;-68
2023/10/03 03:44:43;;;;;;;17.05;6.60;;;15.90;93.70;;;;;;5004139;28;20458;-68
2023/10/03 03:47:10;;;;;;;13.93;5.90;;;15.80;93.50;;;;;;5008721;28;20041;-70
2023/10/03 03:49:36;;;;;;;11.38;5.93;;;15.90;93.50;;;;;;5010181;28;20030;-68
2023/10/03 03:52:01;;;;;;;14.55;6.32;;;15.80;93.40;;;;;;4998869;28;20042;-69
2023/10/03 03:54:27;;;;;;;15.45;6.30;;;15.80;93.30;;;;;;4998096;28;20049;-68
2023/10/03 03:56:52;;;;;;;14.90;6.53;;;15.80;93.10;;;;;;5003081;28;20465;-68
2023/10/03 03:59:18;;;;;;;17.25;7.05;;;15.80;93.10;;;;;;5004701;28;20030;-70
2023/10/03 04:01:43;;;;;;;14.70;6.25;;;15.80;93.00;;;;;;4997412;28;20091;-68
2023/10/03 04:04:12;;;;;;;13.70;6.50;;;15.80;92.80;;;;;;5001939;28;20033;-69
2023/10/03 04:06:38;;;;;;;16.60;6.63;;;15.80;92.70;;;;;;5009651;28;20374;-68
2023/10/03 04:09:05;;;;;;;15.13;7.28;;;15.90;92.40;;;;;;5022022;28;20030;-68
2023/10/03 04:11:32;;;;;;;16.42;6.72;;;15.80;92.50;;;;;;5008873;28;20034;-69
2023/10/03 04:13:59;;;;;;;20.05;7.10;;;15.90;92.40;;;;;;5002409;28;20046;-69
2023/10/03 04:16:27;;;;;;;14.82;7.00;;;15.90;92.40;;;;;;5007384;28;20040;-68
2023/10/03 04:18:53;;;;;;;14.90;6.97;;;16.00;92.20;;;;;;5007796;28;20021;-69
2023/10/03 04:21:26;;;;;;;15.40;7.00;;;16.00;92.00;;;;;;5010475;28;20038;-69
2023/10/03 04:23:53;;;;;;;16.52;6.65;;;15.90;92.30;;;;;;5013290;28;20033;-68
2023/10/03 04:26:19;;;;;;;15.52;6.82;;;15.90;92.10;;;;;;5008775;28;20474;-66
2023/10/03 04:28:45;;;;;;;15.85;7.03;;;15.90;92.10;;;;;;5000876;28;20022;-65
2023/10/03 04:31:10;;;;;;;13.85;6.20;;;16.00;91.80;;;;;;5008604;28;20041;-67
2023/10/03 04:33:36;;;;;;;13.00;6.53;;;15.90;92.10;;;;;;5003787;28;20232;-65
2023/10/03 04:36:05;;;;;;;16.42;7.00;;;15.90;91.90;;;;;;5006846;28;20057;-65
2023/10/03 04:38:31;;;;;;;17.38;6.38;;;16.00;91.70;;;;;;5000150;28;20742;-65
2023/10/03 04:40:57;;;;;;;17.45;7.28;;;16.00;91.40;;;;;;5004534;28;20030;-65
2023/10/03 04:43:23;;;;;;;16.10;6.78;;;16.10;91.10;;;;;;5002654;28;20054;-66
2023/10/03 04:45:51;;;;;;;15.88;7.55;;;16.00;91.20;;;;;;5001610;28;20065;-65
2023/10/03 04:48:16;;;;;;;17.33;7.75;;;16.10;90.80;;;;;;5006487;28;20049;-66
2023/10/03 04:50:42;;;;;;;16.02;6.93;;;16.20;90.90;;;;;;5006958;28;20038;-65
2023/10/03 04:53:14;;;;;;;17.30;7.30;;;16.20;90.60;;;;;;5008284;28;20107;-65
2023/10/03 04:55:40;;;;;;;15.35;6.95;;;16.20;90.70;;;;;;5005730;28;20034;-65
2023/10/03 04:58:05;;;;;;;15.80;6.65;;;16.30;90.50;;;;;;5006932;28;20352;-66
2023/10/03 05:00:31;;;;;;;16.63;6.68;;;16.30;90.30;;;;;;5007507;28;20030;-65
2023/10/03 05:02:57;;;;;;;15.68;7.35;;;16.30;90.30;;;;;;5010656;28;20030;-65
2023/10/03 05:05:26;;;;;;;15.38;7.10;;;16.30;90.20;;;;;;5006749;28;20038;-66
2023/10/03 05:07:53;;;;;;;17.42;6.88;;;16.40;90.00;;;;;;4998482;28;20034;-65
2023/10/03 05:10:20;;;;;;;16.02;6.57;;;16.40;90.20;;;;;;5012297;28;20057;-65
2023/10/03 05:12:47;;;;;;;17.65;7.22;;;16.40;89.80;;;;;;5006501;28;20088;-65
2023/10/03 05:15:14;;;;;;;21.02;6.75;;;16.50;89.70;;;;;;5005544;28;20098;-65
2023/10/03 05:17:40;;;;;;;13.27;5.68;;;16.40;89.90;;;;;;5012539;28;20038;-65
2023/10/03 05:20:07;;;;;;;21.65;7.50;;;16.40;90.10;;;;;;5007704;28;20037;-65
2023/10/03 05:22:32;;;;;;;15.85;6.63;;;16.40;89.90;;;;;;5002633;28;20034;-65
2023/10/03 05:25:01;;;;;;;13.88;7.03;;;16.40;90.20;;;;;;5005994;28;20053;-65
2023/10/03 05:27:28;;;;;;;18.83;7.32;;;16.30;90.30;;;;;;5006961;28;20030;-65
2023/10/03 05:29:57;;;;;;;18.48;7.70;;;16.50;89.50;;;;;;5005944;28;20111;-66
2023/10/03 05:32:24;;;;;;;15.10;7.32;;;16.70;89.00;;;;;;5003590;28;20380;-65
2023/10/03 05:34:52;;;;;;;18.77;7.65;;;16.70;89.10;;;;;;5005303;28;20129;-65
2023/10/03 05:37:17;;;;;;;17.38;7.57;;;16.80;88.70;;;;;;5012165;28;20463;-65
2023/10/03 05:39:43;;;;;;;15.73;7.30;;;16.70;89.00;;;;;;5010788;28;20038;-65
2023/10/03 05:42:09;;;;;;;18.13;6.68;;;16.70;89.00;;;;;;5004141;28;20045;-67
2023/10/03 05:44:37;;;;;;;16.02;6.72;;;16.80;88.80;;;;;;5001287;28;20030;-66
2023/10/03 05:47:03;;;;;;;16.00;6.88;;;16.80;89.00;;;;;;5007145;28;20029;-65
2023/10/03 05:49:28;;;;;;;18.25;7.47;;;16.90;88.50;;;;;;5010324;28;20067;-66
2023/10/03 05:51:57;;;;;;;15.68;7.00;;;16.90;88.80;;;;;;5002987;28;20038;-66
2023/10/03 05:54:26;;;;;;;17.45;7.78;;;17.00;88.70;;;;;;5009945;28;20120;-65
2023/10/03 05:56:52;;;;;;;17.48;6.47;;;17.00;88.40;;;;;;5001942;28;20426;-65
2023/10/03 05:59:21;;;;;;;17.60;7.18;;;17.10;88.10;;;;;;4995893;28;20475;-65
2023/10/03 06:01:50;;;;;;;17.33;6.93;;;17.10;87.90;;;;;;5006330;28;20076;-65
2023/10/03 06:04:16;;;;;;;18.17;7.32;;;17.20;88.00;;;;;;5009333;28;20022;-66
2023/10/03 06:06:43;;;;;;;14.48;7.10;;;17.40;87.10;;;;;;5009662;28;20072;-65
2023/10/03 06:09:11;;;;;;;15.30;7.25;;;17.50;86.90;;;;;;5002061;28;20030;-65
2023/10/03 06:11:38;;;;;;;17.25;6.50;;;17.60;86.10;;;;;;5010637;28;20041;-66
2023/10/03 06:14:06;;;;;;;14.88;6.50;;;17.70;86.10;;;;;;5005196;28;20080;-65
2023/10/03 06:16:33;;;;;;;18.70;7.40;;;17.90;85.40;;;;;;5009778;28;20034;-66
2023/10/03 06:18:58;;;;;;;13.57;6.25;;;18.00;84.90;;;;;;5006610;28;20067;-66
2023/10/03 06:21:24;;;;;;;15.65;6.43;;;18.10;84.50;;;;;;4996198;28;20109;-66
2023/10/03 06:23:50;;;;;;;17.55;7.20;;;18.10;84.40;;;;;;5002815;28;20104;-66
2023/10/03 06:26:17;;;;;;;14.82;7.03;;;18.10;84.80;;;;;;5008863;28;20038;-65
2023/10/03 06:28:43;;;;;;;16.55;6.55;;;18.10;84.50;;;;;;5003367;28;20123;-65
2023/10/03 06:31:10;;;;;;;17.13;6.53;;;18.20;84.80;;;;;;5006913;28;20389;-65
2023/10/03 06:33:37;;;;;;;16.08;7.20;;;18.30;84.30;;;;;;4999879;28;20125;-65
2023/10/03 06:36:06;;;;;;;15.35;6.90;;;18.20;84.50;;;;;;5003512;28;20165;-66
2023/10/03 06:38:33;;;;;;;15.85;7.45;;;18.20;84.30;;;;;;5000774;28;20030;-65
2023/10/03 06:40:59;;;;;;;17.20;6.85;;;18.30;84.30;;;;;;4998814;28;20065;-66
2023/10/03 06:43:25;;;;;;;17.60;7.20;;;18.40;84.00;;;;;;5004289;28;20022;-66
2023/10/03 06:45:50;;;;;;;17.70;7.00;;;18.30;84.80;;;;;;5006512;28;20083;-65
2023/10/03 06:48:15;;;;;;;14.93;6.57;;;18.30;83.90;;;;;;5001760;28;20030;-65
2023/10/03 06:50:42;;;;;;;16.98;7.25;;;18.40;84.10;;;;;;5005891;28;20081;-65
2023/10/03 06:53:09;;;;;;;16.48;7.07;;;18.50;83.90;;;;;;4999861;28;20030;-65
2023/10/03 06:55:35;;;;;;;14.00;6.72;;;18.50;84.40;;;;;;5008695;28;20026;-66
2023/10/03 06:58:02;;;;;;;19.17;6.82;;;18.50;84.40;;;;;;5006499;28;20468;-65
2023/10/03 07:00:30;;;;;;;15.10;6.65;;;18.50;84.10;;;;;;5005279;28;20084;-65
2023/10/03 07:02:56;;;;;;;15.55;7.20;;;18.50;84.00;;;;;;4996998;28;20661;-66
2023/10/03 07:05:21;;;;;;;15.95;6.53;;;18.60;83.90;;;;;;5000198;28;20479;-67
2023/10/03 07:07:47;;;;;;;14.20;6.65;;;18.60;84.30;;;;;;5005726;28;20065;-66
2023/10/03 07:10:13;;;;;;;16.05;7.25;;;18.60;84.30;;;;;;5000141;28;20026;-65
2023/10/03 07:12:38;;;;;;;15.93;6.50;;;18.80;83.60;;;;;;4999342;28;20069;-66
2023/10/03 07:15:08;;;;;;;16.55;7.22;;;19.00;83.80;;;;;;5008515;28;20042;-66
2023/10/03 07:17:35;;;;;;;15.25;6.78;;;19.00;83.30;;;;;;5016986;28;20030;-65
2023/10/03 07:20:05;;;;;;;16.58;7.28;;;19.10;83.80;;;;;;5002791;28;20058;-66
2023/10/03 07:22:31;;;;;;;18.38;7.30;;;19.30;82.70;;;;;;5001980;28;20026;-65
2023/10/03 07:24:57;;;;;;;19.38;7.40;;;19.30;82.80;;;;;;4994571;28;20062;-68
2023/10/03 07:27:22;;;;;;;16.40;7.32;;;19.50;82.70;;;;;;4995699;28;20502;-64
2023/10/03 07:29:48;;;;;;;16.92;6.93;;;19.50;83.30;;;;;;4993439;28;20046;-64
2023/10/03 07:32:14;;;;;;;17.55;7.38;;;19.50;82.70;;;;;;4998840;28;20086;-64
2023/10/03 07:34:44;;;;;;;16.02;6.78;;;19.50;82.50;;;;;;4997411;28;20087;-66
2023/10/03 07:37:10;;;;;;;14.50;6.38;;;19.50;82.50;;;;;;5001323;28;20034;-65
2023/10/03 07:39:38;;;;;;;19.17;7.07;;;19.50;82.70;;;;;;5002193;28;20038;-65
2023/10/03 07:42:04;;;;;;;13.82;6.47;;;19.60;82.30;;;;;;5009409;28;20037;-64
2023/10/03 07:44:30;;;;;;;15.65;6.63;;;19.70;82.10;;;;;;4999015;28;20359;-64
2023/10/03 07:46:55;;;;;;;19.10;7.63;;;19.80;82.30;;;;;;5005588;28;20037;-64
2023/10/03 07:49:22;;;;;;;13.70;6.80;;;20.00;82.10;;;;;;4994170;28;20030;-65
2023/10/03 07:51:49;;;;;;;18.10;7.93;;;20.10;82.00;;;;;;5004050;28;20026;-64
2023/10/03 07:54:17;;;;;;;17.30;7.47;;;20.10;81.60;;;;;;5006640;28;20035;-64
2023/10/03 07:56:44;;;;;;;18.13;7.47;;;20.20;82.00;;;;;;5001869;28;20470;-65
2023/10/03 07:59:10;;;;;;;17.90;7.90;;;20.00;82.00;;;;;;5007400;28;20030;-64
2023/10/03 08:01:38;;;;;;;16.42;7.25;;;20.00;82.60;;;;;;4996863;28;20046;-65
2023/10/03 08:04:13;;;;;;;15.15;7.15;;;19.90;82.60;;;;;;4999915;28;20053;-67
2023/10/03 08:06:39;;;;;;;16.27;7.38;;;19.80;83.30;;;;;;5004784;28;20483;-67
2023/10/03 08:09:06;;;;;;;15.60;7.00;;;19.70;83.00;;;;;;4999729;28;20025;-64
2023/10/03 08:11:32;;;;;;;14.45;7.05;;;19.70;83.60;;;;;;5004287;28;20737;-66
2023/10/03 08:13:59;;;;;;;17.17;6.97;;;19.70;83.90;;;;;;4996864;28;20037;-64
2023/10/03 08:16:27;;;;;;;17.27;7.40;;;19.60;83.80;;;;;;4999714;28;20033;-69
2023/10/03 08:18:58;;;;;;;14.75;6.85;;;19.70;83.90;;;;;;5000522;28;20105;-65
2023/10/03 08:21:27;;;;;;;18.30;6.80;;;19.60;84.00;;;;;;4999156;28;20022;-66
2023/10/03 08:23:54;;;;;;;13.10;5.35;;;19.80;83.40;;;;;;5005047;28;20071;-64
2023/10/03 08:26:21;;;;;;;13.30;5.72;;;19.90;83.00;;;;;;5007042;28;20049;-64
2023/10/03 08:28:59;;;;;;;15.25;6.10;;;20.00;83.10;;;;;;5000001;28;20061;-65
2023/10/03 08:31:25;;;;;;;14.93;6.88;;;20.00;82.70;;;;;;5001821;28;20355;-66
2023/10/03 08:33:55;;;;;;;14.90;6.90;;;20.00;82.90;;;;;;5004019;28;20018;-64
2023/10/03 08:36:27;;;;;;;15.23;6.88;;;19.90;83.50;;;;;;5004379;28;20506;-64
2023/10/03 08:38:57;;;;;;;14.05;6.13;;;19.80;84.00;;;;;;5007249;28;20117;-65
2023/10/03 08:41:45;;;;;;;14.57;6.00;;;19.70;83.80;;;;;;5014675;28;20022;-65
2023/10/03 08:44:12;;;;;;;13.65;5.72;;;19.70;84.00;;;;;;5006611;28;20037;-64
2023/10/03 08:46:44;;;;;;;14.50;6.00;;;19.80;83.70;;;;;;5007414;28;20251;-64
2023/10/03 08:49:12;;;;;;;14.55;5.97;;;19.90;83.60;;;;;;5008981;28;20030;-64
2023/10/03 08:51:37;;;;;;;14.32;5.65;;;20.00;83.20;;;;;;5007588;28;20140;-67
2023/10/03 08:54:10;;;;;;;13.95;6.25;;;20.20;83.10;;;;;;5007369;28;21057;-64
2023/10/03 08:56:39;;;;;;;13.93;5.82;;;20.40;82.20;;;;;;5008561;28;20026;-67
2023/10/03 08:59:09;;;;;;;17.05;6.07;;;20.40;81.90;;;;;;5008179;28;20068;-65
2023/10/03 09:01:43;;;;;;;12.00;5.65;;;20.40;82.20;;;;;;5014007;28;20032;-66
2023/10/03 09:04:15;;;;;;;13.55;5.72;;;20.50;82.20;;;;;;5018278;28;20441;-65
2023/10/03 09:06:43;;;;;;;14.98;5.88;;;20.50;81.90;;;;;;5012992;28;20038;-65
2023/10/03 09:09:09;;;;;;;13.50;6.45;;;20.50;81.90;;;;;;5014641;28;20030;-66
2023/10/03 09:11:38;;;;;;;12.57;4.95;;;20.40;82.50;;;;;;5013518;28;20490;-66
2023/10/03 09:14:05;;;;;;;12.93;5.72;;;20.30;82.30;;;;;;5014152;28;20065;-67
2023/10/03 09:16:30;;;;;;;14.65;6.15;;;20.50;81.90;;;;;;5016975;28;20033;-65
2023/10/03 09:18:56;;;;;;;15.00;6.40;;;20.50;82.50;;;;;;5016886;28;20490;-64
2023/10/03 09:21:27;;;;;;;11.95;5.57;;;20.50;81.80;;;;;;5014478;28;20425;-64
2023/10/03 09:24:09;;;;;;;18.23;5.60;;;20.60;81.60;;;;;;5016290;28;20030;-65
2023/10/03 09:26:50;;;;;;;14.80;5.55;;;20.50;81.80;;;;;;5015577;28;20072;-66
2023/10/03 09:29:18;;;;;;;12.52;5.40;;;20.20;82.30;;;;;;5012376;28;20061;-65
2023/10/03 09:31:48;;;;;;;12.13;5.47;;;20.20;82.70;;;;;;5015021;28;20072;-66
2023/10/03 09:34:16;;;;;;;9.90;5.03;;;20.00;83.60;;;;;;5004948;28;20038;-66
2023/10/03 09:36:42;;;;;;;10.18;3.83;;;20.00;82.30;;;;;;5012964;28;20029;-65
2023/10/03 09:39:08;;;;;;;8.82;3.75;;;20.00;81.90;;;;;;5017426;28;20421;-66
2023/10/03 09:41:38;;;;;;;12.02;3.28;;;20.10;81.80;;;;;;5011566;28;20117;-66
2023/10/03 09:44:05;;;;;;;8.15;2.97;;;20.30;79.70;;;;;;5003226;28;20038;-67
2023/10/03 09:46:40;;;;;;;6.60;3.00;;;20.40;79.50;;;;;;5004458;28;20445;-65
2023/10/03 09:49:10;;;;;;;11.75;3.08;;;20.30;79.80;;;;;;5004627;28;20041;-65
2023/10/03 09:51:36;;;;;;;6.60;2.55;;;20.40;80.30;;;;;;4999395;28;20467;-65
2023/10/03 09:54:10;;;;;;;12.93;3.13;;;20.40;79.50;;;;;;5003757;28;20477;-65
2023/10/03 09:56:40;;;;;;;7.38;2.50;;;20.40;79.90;;;;;;4999280;28;20529;-65
2023/10/03 09:59:07;;;;;;;5.67;2.10;;;20.20;80.10;;;;;;4999520;28;20042;-65
2023/10/03 10:01:39;;;;;;;7.70;2.53;;;20.00;80.10;;;;;;5007246;28;20526;-65
2023/10/03 10:04:09;;;;;;;5.15;2.42;;;19.90;80.40;;;;;;5007872;28;20080;-65
2023/10/03 10:06:47;;;;;;;9.43;2.40;;;19.80;80.40;;;;;;4998320;28;20077;-65
2023/10/03 10:09:28;;;;;;;6.65;2.20;;;19.70;80.70;;;;;;5007148;28;20030;-65
2023/10/03 10:12:19;;;;;;;5.35;2.20;;;19.60;80.50;;;;;;5009144;28;20578;-66
2023/10/03 10:17:56;;;;;;;4.57;1.98;;;19.50;81.30;;;;;;5003266;28;20080;-65
2023/10/03 10:20:32;;;;;;;5.75;2.10;;;19.50;81.50;;;;;;5008822;28;20026;-65
2023/10/03 10:22:58;;;;;;;7.97;2.00;;;19.50;81.60;;;;;;5004116;28;20048;-67
2023/10/03 10:25:31;;;;;;;6.10;2.20;;;19.50;81.30;;;;;;5009581;28;20486;-65
2023/10/03 10:28:05;;;;;;;5.00;2.08;;;19.60;81.20;;;;;;5003821;28;20036;-65
2023/10/03 10:30:35;;;;;;;2.80;1.77;;;19.80;81.00;;;;;;5000971;28;20029;-67
2023/10/03 10:33:21;;;;;;;5.65;1.92;;;19.90;80.70;;;;;;4999960;28;20030;-65
2023/10/03 10:35:59;;;;;;;5.28;1.98;;;19.90;80.70;;;;;;5002659;28;20057;-67
2023/10/03 10:38:31;;;;;;;6.32;2.15;;;19.90;81.20;;;;;;5004937;28;20030;-65
2023/10/03 10:41:17;;;;;;;4.95;1.92;;;19.90;81.00;;;;;;5006507;28;20697;-65
2023/10/03 10:44:14;;;;;;;9.20;2.13;;;19.70;81.90;;;;;;5000171;28;20641;-65
2023/10/03 10:46:45;;;;;;;4.97;2.33;;;19.50;81.90;;;;;;5008185;28;20053;-65
2023/10/03 10:49:30;;;;;;;;;;;19.50;82.30;;;;;;5000517;28;20046;-65
2023/10/03 10:52:01;;;;;;;4.63;1.80;;;19.50;82.30;;;;;;5008888;28;19920;-68
2023/10/03 10:54:29;;;;;;;5.05;2.00;;;19.50;82.50;;;;;;4999863;28;20387;-64
2023/10/03 10:57:03;;;;;;;5.65;2.10;;;19.50;83.40;;;;;;5003398;28;20045;-67
2023/10/03 10:59:35;;;;;;;3.83;1.77;;;19.00;86.30;;;;;;5000788;28;20077;-64
2023/10/03 11:02:01;;;;;;;8.18;2.40;;;18.70;87.70;;;;;;5005147;28;20034;-67
2023/10/03 11:04:29;;;;;;;7.43;2.67;;;18.50;88.80;;;;;;5003751;28;20053;-67
2023/10/03 11:06:54;;;;;;;4.90;2.33;;;18.30;89.70;;;;;;5008424;28;20045;-66
2023/10/03 11:09:21;;;;;;;7.30;2.58;;;18.30;90.10;;;;;;5002074;28;20033;-65
2023/10/03 11:11:47;;;;;;;6.68;2.63;;;18.30;90.40;;;;;;5001523;28;20026;-65
2023/10/03 11:14:29;;;;;;;3.88;1.90;;;18.20;91.50;;;;;;5003899;28;20498;-65
2023/10/03 11:16:55;;;;;;;5.75;2.42;;;18.00;93.00;;;;;;4999250;28;20030;-65
2023/10/03 11:19:21;;;;;;;8.20;2.42;;;17.70;94.70;;;;;;5003724;28;20422;-65
2023/10/03 11:21:48;;;;;;;4.97;2.67;;;17.50;95.30;;;;;;5001930;28;20033;-67
2023/10/03 11:24:19;;;;;;;6.45;2.83;;;17.40;95.70;;;;;;4998981;28;20112;-66
2023/10/03 11:26:48;;;;;;;;;;;17.40;96.10;;;;;;5003120;28;20053;-66
2023/10/03 11:29:15;;;;;;;8.77;3.08;;;17.30;96.20;;;;;;4997162;28;19924;-66
2023/10/03 11:31:42;;;;;;;6.97;2.50;;;17.30;96.80;;;;;;4996776;28;20061;-65
2023/10/03 11:34:07;;;;;;;5.55;3.00;;;17.20;97.10;;;;;;5003282;28;20076;-66
2023/10/03 11:36:41;;;;;;;5.00;1.90;;;17.10;97.20;;;;;;5004790;28;20490;-65
2023/10/03 11:39:07;;;;;;;6.85;2.25;;;17.00;96.40;;;;;;5007578;28;20063;-65
2023/10/03 11:41:33;;;;;;;6.13;1.77;;;16.90;96.00;;;;;;4997371;28;20030;-66
2023/10/03 11:43:59;;;;;;;3.47;1.50;;;16.80;95.70;;;;;;4999743;28;20370;-65
2023/10/03 11:46:25;;;;;;;3.92;1.23;;;16.70;95.50;;;;;;5003065;28;20128;-65
2023/10/03 11:48:59;;;;;;;3.60;1.10;;;16.50;94.70;;;;;;4999434;28;20541;-66
2023/10/03 11:51:31;;;;;;;4.35;1.00;;;16.50;94.70;;;;;;5006025;28;20481;-65
2023/10/03 11:53:56;;;;;;;5.22;1.00;;;16.40;94.60;;;;;;4996550;28;20045;-65
2023/10/03 11:56:22;;;;;;;2.63;0.80;;;16.50;94.90;;;;;;5003451;28;20033;-65
2023/10/03 11:58:47;;;;;;;6.22;1.00;;;16.40;94.40;;;;;;4998270;28;20550;-66
2023/10/03 12:01:13;;;;;;;5.28;1.00;;;16.50;94.20;;;;;;4999810;28;20041;-65
2023/10/03 12:03:38;;;;;;;2.05;0.70;;;16.50;94.20;;;;;;4999266;28;20360;-66
2023/10/03 12:06:04;;;;;;;2.20;0.80;;;16.50;93.90;;;;;;5002511;28;20038;-65
2023/10/03 12:08:32;;;;;;;2.33;0.70;;;16.50;94.20;;;;;;5005890;28;20040;-65
2023/10/03 12:10:57;;;;;;;3.65;0.85;;;16.50;94.10;;;;;;5004648;28;20040;-65
2023/10/03 12:13:23;;;;;;;1.85;0.45;;;16.50;93.50;;;;;;4997884;28;20034;-66
2023/10/03 12:15:49;;;;;;;5.22;0.47;;;16.50;93.20;;;;;;5006615;28;20128;-65
2023/10/03 12:18:15;;;;;;;2.67;0.40;;;16.30;93.60;;;;;;5002453;28;20064;-66
2023/10/03 12:20:43;;;;;;;2.75;0.40;;;16.10;93.00;;;;;;5001443;28;20062;-66
2023/10/03 12:23:09;;;;;;;1.63;0.30;;;16.10;92.80;;;;;;5002719;28;20055;-68
2023/10/03 12:25:35;;;;;;;5.30;0.50;;;16.20;92.60;;;;;;5002964;28;20491;-68
2023/10/03 12:28:01;;;;;;;2.65;0.82;;;16.40;92.90;;;;;;5014446;28;20033;-65
2023/10/03 12:30:26;;;;;;;1.25;0.30;;;16.40;92.40;;;;;;4999020;28;20394;-65
2023/10/03 12:32:53;;;;;;;1.95;0.55;;;16.40;92.40;;;;;;5001224;28;20030;-65
2023/10/03 12:35:19;;;;;;;2.53;0.40;;;16.30;92.70;;;;;;5004609;28;20030;-66
2023/10/03 12:37:48;;;;;;;6.53;0.63;;;16.20;92.70;;;;;;5005193;28;20038;-65
2023/10/03 12:40:18;;;;;;;1.98;0.40;;;16.10;93.50;;;;;;5007985;28;20041;-65
2023/10/03 12:42:47;;;;;;;3.42;0.38;;;16.00;93.70;;;;;;5005734;28;20040;-65
2023/10/03 12:45:16;;;;;;;1.52;0.20;;;15.80;92.80;;;;;;5006863;28;20378;-65
2023/10/03 12:47:47;;;;;;;4.18;0.60;;;15.60;92.30;;;;;;5003995;28;20049;-65